Time;durP1;ratioP1;P1;durP2;ratioP2;P2;SDS_P1;SDS_P2;PMS_P1;PMS_P2;Temp;Humidity;BMP_temperature;BMP_pressure;BME280_temperature;BME280_humidity;BME280_pressure;Samples;Min_cycle;Max_cycle;Signal;HPM_P1;HPM_P2
2023/04/16 00:00:16;;;;;;;5.33;4.83;;;;;;;;;;5072622;28;20452;-57
2023/04/16 00:02:44;;;;;;;6.00;5.60;;;;;;;;;;5072415;28;20962;-57
2023/04/16 00:05:11;;;;;;;6.43;5.97;;;;;;;;;;5072419;28;20455;-58
2023/04/16 00:07:38;;;;;;;6.73;6.10;;;;;;;;;;5072699;28;20454;-57
2023/04/16 00:10:06;;;;;;;6.63;6.03;;;;;;;;;;5072446;28;20587;-59
2023/04/16 00:12:32;;;;;;;5.83;5.33;;;;;;;;;;5076165;28;20451;-58
2023/04/16 00:14:59;;;;;;;5.83;5.53;;;;;;;;;;5076278;28;20807;-58
2023/04/16 00:17:26;;;;;;;6.33;5.83;;;;;;;;;;5076194;28;20884;-58
2023/04/16 00:19:54;;;;;;;5.80;5.40;;;;;;;;;;5076326;28;20452;-58
2023/04/16 00:22:21;;;;;;;6.20;5.70;;;;;;;;;;5076196;28;20454;-59
2023/04/16 00:24:48;;;;;;;6.47;5.97;;;;;;;;;;5076079;28;20452;-57
2023/04/16 00:27:15;;;;;;;6.10;5.60;;;;;;;;;;5076061;28;20550;-58
2023/04/16 00:29:42;;;;;;;6.07;5.53;;;;;;;;;;5075811;28;20471;-58
2023/04/16 00:32:09;;;;;;;9.67;8.80;;;;;;;;;;5075788;28;20447;-58
2023/04/16 00:34:36;;;;;;;8.37;7.60;;;;;;;;;;5075998;28;20541;-58
2023/04/16 00:37:04;;;;;;;7.27;6.73;;;;;;;;;;5076126;28;20451;-59
2023/04/16 00:39:31;;;;;;;8.60;7.70;;;;;;;;;;5075880;28;20458;-58
2023/04/16 00:41:58;;;;;;;8.20;7.50;;;;;;;;;;5075708;28;20448;-57
2023/04/16 00:44:25;;;;;;;7.33;6.70;;;;;;;;;;5075543;28;20511;-58
2023/04/16 00:46:52;;;;;;;10.03;9.10;;;;;;;;;;5075473;28;21033;-58
2023/04/16 00:49:19;;;;;;;9.67;8.83;;;;;;;;;;5075740;28;20478;-56
2023/04/16 00:51:46;;;;;;;9.97;9.17;;;;;;;;;;5075633;28;20451;-57
2023/04/16 00:54:14;;;;;;;11.43;10.43;;;;;;;;;;5075535;28;20462;-56
2023/04/16 00:56:41;;;;;;;11.70;10.70;;;;;;;;;;5075524;28;20452;-55
2023/04/16 00:59:09;;;;;;;11.73;10.60;;;;;;;;;;5075299;28;20540;-59
2023/04/16 01:01:36;;;;;;;11.67;10.50;;;;;;;;;;5075332;28;20516;-55
2023/04/16 01:04:03;;;;;;;12.87;11.37;;;;;;;;;;5075497;28;20479;-57
2023/04/16 01:06:30;;;;;;;13.27;11.97;;;;;;;;;;5075582;28;20470;-57
2023/04/16 01:08:57;;;;;;;12.37;11.13;;;;;;;;;;5075281;28;20505;-57
2023/04/16 01:11:26;;;;;;;13.37;12.07;;;;;;;;;;5075070;28;20479;-57
2023/04/16 01:13:53;;;;;;;13.43;12.20;;;;;;;;;;5075114;28;20448;-58
2023/04/16 01:16:20;;;;;;;13.90;12.43;;;;;;;;;;5075280;28;20958;-57
2023/04/16 01:18:46;;;;;;;14.27;12.97;;;;;;;;;;5075186;28;20452;-57
2023/04/16 01:21:15;;;;;;;13.63;12.23;;;;;;;;;;5074921;28;20962;-58
2023/04/16 01:23:42;;;;;;;17.10;14.30;;;;;;;;;;5073805;28;20475;-57
2023/04/16 01:26:08;;;;;;;14.37;12.90;;;;;;;;;;5075127;28;20535;-57
2023/04/16 01:28:35;;;;;;;13.83;12.50;;;;;;;;;;5074878;28;21018;-58
2023/04/16 01:31:02;;;;;;;14.37;12.87;;;;;;;;;;5074924;28;20510;-59
2023/04/16 01:33:29;;;;;;;14.40;13.00;;;;;;;;;;5074932;28;20833;-58
2023/04/16 01:35:56;;;;;;;14.80;13.23;;;;;;;;;;5074759;28;20451;-58
2023/04/16 01:38:25;;;;;;;14.80;13.30;;;;;;;;;;5074744;28;20454;-57
2023/04/16 01:40:55;;;;;;;13.50;12.10;;;;;;;;;;5074602;28;20452;-57
2023/04/16 01:43:22;;;;;;;13.20;12.00;;;;;;;;;;5074681;28;20569;-57
2023/04/16 01:45:49;;;;;;;13.23;12.03;;;;;;;;;;5074592;28;20447;-56
2023/04/16 01:48:17;;;;;;;13.63;12.30;;;;;;;;;;5074547;28;20872;-58
2023/04/16 01:50:43;;;;;;;15.20;13.60;;;;;;;;;;5074390;28;20479;-56
2023/04/16 01:53:10;;;;;;;14.93;13.43;;;;;;;;;;5074343;28;20538;-57
2023/04/16 01:55:39;;;;;;;15.70;13.80;;;;;;;;;;5074212;28;20447;-56
2023/04/16 01:58:09;;;;;;;14.87;13.47;;;;;;;;;;5074409;28;20444;-57
2023/04/16 02:00:36;;;;;;;15.17;13.60;;;;;;;;;;5074358;28;20540;-56
2023/04/16 02:03:03;;;;;;;14.27;12.87;;;;;;;;;;5074229;28;20479;-58
2023/04/16 02:05:30;;;;;;;15.13;13.53;;;;;;;;;;5074055;28;21002;-57
2023/04/16 02:07:57;;;;;;;16.70;13.40;;;;;;;;;;5074003;28;20558;-57
2023/04/16 02:10:24;;;;;;;14.97;13.37;;;;;;;;;;5073816;28;20567;-58
2023/04/16 02:12:52;;;;;;;13.77;12.47;;;;;;;;;;5074424;28;20454;-58
2023/04/16 02:15:19;;;;;;;14.40;13.00;;;;;;;;;;5074033;28;20455;-58
2023/04/16 02:17:47;;;;;;;15.03;13.53;;;;;;;;;;5073918;28;20455;-58
2023/04/16 02:20:14;;;;;;;13.97;12.47;;;;;;;;;;5073859;28;20467;-59
2023/04/16 02:22:42;;;;;;;15.60;13.37;;;;;;;;;;5073700;28;20521;-58
2023/04/16 02:25:09;;;;;;;13.90;12.50;;;;;;;;;;5074016;28;20476;-58
2023/04/16 02:27:36;;;;;;;14.80;12.70;;;;;;;;;;5073990;28;20792;-58
2023/04/16 02:30:04;;;;;;;13.43;12.13;;;;;;;;;;5073820;28;20566;-58
2023/04/16 02:32:31;;;;;;;14.20;12.83;;;;;;;;;;5073875;28;20458;-58
2023/04/16 02:34:58;;;;;;;14.70;13.30;;;;;;;;;;5073241;28;20561;-58
2023/04/16 02:37:25;;;;;;;15.77;14.27;;;;;;;;;;5073451;28;20451;-59
2023/04/16 02:39:52;;;;;;;14.90;13.40;;;;;;;;;;5073592;28;20448;-58
2023/04/16 02:42:19;;;;;;;14.53;13.20;;;;;;;;;;5073502;28;20534;-58
2023/04/16 02:44:46;;;;;;;15.20;13.70;;;;;;;;;;5073365;28;20479;-58
2023/04/16 02:47:14;;;;;;;14.70;13.30;;;;;;;;;;5073478;28;20838;-58
2023/04/16 02:49:41;;;;;;;14.90;13.47;;;;;;;;;;5073169;28;20474;-57
2023/04/16 02:52:08;;;;;;;15.80;13.43;;;;;;;;;;5073627;28;20454;-58
2023/04/16 02:54:35;;;;;;;14.87;13.37;;;;;;;;;;5073364;28;20444;-57
2023/04/16 02:57:02;;;;;;;14.37;12.97;;;;;;;;;;5073429;28;20476;-56
2023/04/16 02:59:29;;;;;;;15.57;13.97;;;;;;;;;;5073309;28;20447;-57
2023/04/16 03:01:56;;;;;;;14.07;12.77;;;;;;;;;;5073182;28;20861;-58
2023/04/16 03:04:24;;;;;;;14.60;12.70;;;;;;;;;;5073012;28;20534;-58
2023/04/16 03:06:51;;;;;;;14.60;13.20;;;;;;;;;;5073285;28;20490;-58
2023/04/16 03:09:18;;;;;;;14.60;13.20;;;;;;;;;;5072947;28;20951;-57
2023/04/16 03:11:44;;;;;;;14.63;13.20;;;;;;;;;;5073052;28;20483;-58
2023/04/16 03:14:11;;;;;;;15.13;13.63;;;;;;;;;;5073057;28;20451;-58
2023/04/16 03:16:38;;;;;;;13.83;12.40;;;;;;;;;;5072834;28;21001;-59
2023/04/16 03:19:05;;;;;;;15.00;13.47;;;;;;;;;;5072602;28;20532;-58
2023/04/16 03:21:33;;;;;;;13.83;12.47;;;;;;;;;;5072541;28;20527;-58
2023/04/16 03:24:00;;;;;;;16.43;14.40;;;;;;;;;;5072485;28;20542;-57
2023/04/16 03:26:27;;;;;;;16.43;14.73;;;;;;;;;;5072406;28;20495;-57
2023/04/16 03:28:54;;;;;;;16.60;15.00;;;;;;;;;;5072285;28;20475;-58
2023/04/16 03:31:21;;;;;;;14.73;13.23;;;;;;;;;;5072170;28;20532;-58
2023/04/16 03:33:48;;;;;;;15.90;14.40;;;;;;;;;;5072541;28;20456;-57
2023/04/16 03:36:15;;;;;;;15.20;13.67;;;;;;;;;;5072506;28;20541;-57
2023/04/16 03:38:43;;;;;;;17.90;15.43;;;;;;;;;;5072458;28;20486;-56
2023/04/16 03:41:10;;;;;;;15.97;14.33;;;;;;;;;;5072469;28;20444;-56
2023/04/16 03:43:37;;;;;;;16.40;14.80;;;;;;;;;;5072100;28;20987;-55
2023/04/16 03:46:04;;;;;;;18.60;16.70;;;;;;;;;;5073690;28;20538;-56
2023/04/16 03:48:30;;;;;;;16.67;15.00;;;;;;;;;;5076229;28;20454;-56
2023/04/16 03:50:57;;;;;;;19.77;17.80;;;;;;;;;;5076119;28;20482;-56
2023/04/16 03:53:24;;;;;;;19.17;16.10;;;;;;;;;;5076265;28;20542;-57
2023/04/16 03:55:53;;;;;;;18.50;16.70;;;;;;;;;;5076426;28;20483;-57
2023/04/16 03:58:20;;;;;;;17.00;15.30;;;;;;;;;;5076051;28;20826;-56
2023/04/16 04:00:47;;;;;;;18.60;16.70;;;;;;;;;;5076194;28;20542;-56
2023/04/16 04:03:15;;;;;;;18.70;16.73;;;;;;;;;;5076095;28;20493;-57
2023/04/16 04:05:43;;;;;;;18.13;16.10;;;;;;;;;;5076014;28;20442;-57
2023/04/16 04:08:10;;;;;;;20.67;16.77;;;;;;;;;;5075965;28;20473;-57
2023/04/16 04:10:37;;;;;;;20.67;16.50;;;;;;;;;;5076254;28;20476;-55
2023/04/16 04:13:05;;;;;;;17.73;15.93;;;;;;;;;;5075722;28;20462;-57
2023/04/16 04:15:32;;;;;;;20.10;18.00;;;;;;;;;;5076000;28;20448;-57
2023/04/16 04:18:00;;;;;;;20.80;18.70;;;;;;;;;;5075871;28;20470;-56
2023/04/16 04:20:26;;;;;;;20.30;18.20;;;;;;;;;;5075773;28;20487;-57
2023/04/16 04:22:53;;;;;;;20.70;18.50;;;;;;;;;;5075603;28;21011;-54
2023/04/16 04:25:20;;;;;;;22.80;19.17;;;;;;;;;;5075698;28;20534;-57
2023/04/16 04:27:48;;;;;;;23.53;21.00;;;;;;;;;;5075429;28;20531;-56
2023/04/16 04:30:16;;;;;;;24.47;20.77;;;;;;;;;;5075623;28;20443;-56
2023/04/16 04:32:43;;;;;;;25.73;22.20;;;;;;;;;;5075508;28;20447;-56
2023/04/16 04:35:10;;;;;;;23.00;20.50;;;;;;;;;;5075517;28;20542;-57
2023/04/16 04:37:37;;;;;;;24.73;22.03;;;;;;;;;;5075338;28;20535;-55
2023/04/16 04:40:04;;;;;;;25.00;22.20;;;;;;;;;;5075350;28;20453;-57
2023/04/16 04:42:31;;;;;;;27.20;23.60;;;;;;;;;;5075565;28;20942;-57
2023/04/16 04:44:58;;;;;;;28.27;23.23;;;;;;;;;;5075436;28;20534;-57
2023/04/16 04:47:26;;;;;;;28.13;23.13;;;;;;;;;;5075420;28;20444;-56
2023/04/16 04:49:53;;;;;;;28.30;23.40;;;;;;;;;;5075408;28;20530;-54
2023/04/16 04:52:20;;;;;;;28.10;24.20;;;;;;;;;;5075041;28;20506;-56
2023/04/16 04:54:47;;;;;;;29.47;24.87;;;;;;;;;;5075037;28;20832;-55
2023/04/16 04:57:14;;;;;;;27.90;24.70;;;;;;;;;;5075002;28;21022;-56
2023/04/16 04:59:41;;;;;;;28.30;23.50;;;;;;;;;;5075162;28;20542;-56
2023/04/16 05:02:07;;;;;;;31.10;24.77;;;;;;;;;;5075336;28;20454;-55
2023/04/16 05:04:36;;;;;;;33.30;26.57;;;;;;;;;;5074938;28;20477;-57
2023/04/16 05:07:03;;;;;;;29.43;23.40;;;;;;;;;;5074897;28;20448;-57
2023/04/16 05:09:30;;;;;;;33.00;24.57;;;;;;;;;;5074858;28;20479;-58
2023/04/16 05:11:57;;;;;;;29.17;24.87;;;;;;;;;;5074903;28;20483;-56
2023/04/16 05:14:24;;;;;;;24.83;22.00;;;;;;;;;;5074810;28;20463;-56
2023/04/16 05:16:51;;;;;;;29.00;23.13;;;;;;;;;;5074814;28;20497;-57
2023/04/16 05:19:18;;;;;;;28.33;22.40;;;;;;;;;;5074711;28;20459;-54
2023/04/16 05:21:46;;;;;;;27.10;23.33;;;;;;;;;;5074562;28;20447;-58
2023/04/16 05:24:13;;;;;;;27.90;22.03;;;;;;;;;;5074837;28;20554;-56
2023/04/16 05:26:40;;;;;;;27.03;22.60;;;;;;;;;;5074635;28;20550;-55
2023/04/16 05:29:07;;;;;;;25.90;22.07;;;;;;;;;;5074587;28;20559;-57
2023/04/16 05:31:34;;;;;;;24.17;20.27;;;;;;;;;;5075082;28;20554;-57
2023/04/16 05:34:01;;;;;;;22.83;20.00;;;;;;;;;;5074601;28;20792;-56
2023/04/16 05:36:28;;;;;;;22.83;19.10;;;;;;;;;;5074352;28;20534;-57
2023/04/16 05:38:56;;;;;;;25.50;20.13;;;;;;;;;;5074531;28;20448;-57
2023/04/16 05:41:23;;;;;;;23.70;20.37;;;;;;;;;;5074332;28;20931;-56
2023/04/16 05:43:50;;;;;;;23.77;21.03;;;;;;;;;;5074171;28;20467;-56
2023/04/16 05:46:17;;;;;;;21.20;18.90;;;;;;;;;;5074499;28;20451;-58
2023/04/16 05:48:43;;;;;;;24.27;19.80;;;;;;;;;;5074012;28;20559;-57
2023/04/16 05:51:12;;;;;;;26.73;19.53;;;;;;;;;;5073843;28;20480;-57
2023/04/16 05:53:39;;;;;;;22.50;20.10;;;;;;;;;;5074170;28;20864;-57
2023/04/16 05:56:08;;;;;;;26.43;21.17;;;;;;;;;;5074034;28;20448;-57
2023/04/16 05:58:35;;;;;;;27.53;22.47;;;;;;;;;;5073954;28;20751;-56
2023/04/16 06:01:02;;;;;;;28.27;24.27;;;;;;;;;;5073848;28;20452;-57
2023/04/16 06:03:29;;;;;;;29.17;22.43;;;;;;;;;;5073665;28;20526;-57
2023/04/16 06:05:56;;;;;;;30.83;23.40;;;;;;;;;;5073922;28;20505;-57
2023/04/16 06:08:23;;;;;;;29.90;23.87;;;;;;;;;;5073142;28;20498;-58
2023/04/16 06:10:50;;;;;;;29.10;24.17;;;;;;;;;;5073423;28;20958;-57
2023/04/16 06:13:18;;;;;;;32.10;24.03;;;;;;;;;;5073626;28;20513;-57
2023/04/16 06:15:45;;;;;;;42.07;26.80;;;;;;;;;;5073502;28;20447;-58
2023/04/16 06:18:12;;;;;;;38.47;27.93;;;;;;;;;;5073446;28;20448;-57
2023/04/16 06:20:39;;;;;;;36.10;24.50;;;;;;;;;;5073553;28;20484;-57
2023/04/16 06:23:06;;;;;;;35.60;25.03;;;;;;;;;;5073718;28;20539;-57
2023/04/16 06:25:33;;;;;;;40.30;25.10;;;;;;;;;;5073358;28;20538;-56
2023/04/16 06:28:00;;;;;;;32.90;24.43;;;;;;;;;;5073296;28;20544;-57
2023/04/16 06:30:28;;;;;;;31.40;25.37;;;;;;;;;;5073056;28;20882;-57
2023/04/16 06:32:55;;;;;;;37.27;26.40;;;;;;;;;;5073110;28;20581;-56
2023/04/16 06:35:22;;;;;;;35.17;24.43;;;;;;;;;;5073195;28;20535;-56
2023/04/16 06:37:49;;;;;;;32.47;25.20;;;;;;;;;;5073548;28;20452;-56
2023/04/16 06:40:16;;;;;;;33.60;24.97;;;;;;;;;;5073092;28;20448;-55
2023/04/16 06:42:43;;;;;;;35.93;24.80;;;;;;;;;;5072831;28;20455;-55
2023/04/16 06:45:10;;;;;;;33.20;24.47;;;;;;;;;;5072943;28;20539;-56
2023/04/16 06:47:38;;;;;;;30.60;24.90;;;;;;;;;;5073167;28;20448;-55
2023/04/16 06:50:06;;;;;;;33.17;24.00;;;;;;;;;;5073016;28;20452;-55
2023/04/16 06:52:33;;;;;;;33.17;24.57;;;;;;;;;;5072801;28;20566;-58
2023/04/16 06:54:59;;;;;;;35.00;24.77;;;;;;;;;;5072801;28;20543;-56
2023/04/16 06:57:26;;;;;;;35.17;25.63;;;;;;;;;;5072860;28;20824;-57
2023/04/16 06:59:53;;;;;;;32.63;24.77;;;;;;;;;;5072738;28;20454;-55
2023/04/16 07:02:20;;;;;;;31.70;23.80;;;;;;;;;;5072877;28;20443;-58
2023/04/16 07:04:48;;;;;;;34.63;24.50;;;;;;;;;;5073090;28;20543;-55
2023/04/16 07:07:15;;;;;;;32.10;23.53;;;;;;;;;;5073041;28;20493;-55
2023/04/16 07:09:42;;;;;;;27.60;22.30;;;;;;;;;;5072685;28;20443;-57
2023/04/16 07:12:10;;;;;;;31.70;23.20;;;;;;;;;;5072684;28;20562;-55
2023/04/16 07:14:37;;;;;;;32.87;24.73;;;;;;;;;;5072823;28;20444;-57
2023/04/16 07:17:04;;;;;;;27.63;21.77;;;;;;;;;;5072749;28;20544;-55
2023/04/16 07:19:31;;;;;;;29.70;22.97;;;;;;;;;;5072656;28;20475;-55
2023/04/16 07:21:59;;;;;;;30.37;22.37;;;;;;;;;;5072660;28;20497;-57
2023/04/16 07:24:26;;;;;;;29.97;21.53;;;;;;;;;;5072551;28;20888;-55
2023/04/16 07:26:53;;;;;;;27.07;21.13;;;;;;;;;;5072356;28;20448;-56
2023/04/16 07:29:20;;;;;;;28.60;23.40;;;;;;;;;;5072601;28;20526;-56
2023/04/16 07:31:47;;;;;;;27.87;23.10;;;;;;;;;;5072640;28;20479;-56
2023/04/16 07:34:14;;;;;;;32.27;23.03;;;;;;;;;;5072246;28;20538;-57
2023/04/16 07:36:41;;;;;;;26.77;20.57;;;;;;;;;;5072391;28;20539;-55
2023/04/16 07:39:11;;;;;;;26.57;21.77;;;;;;;;;;5072332;28;20480;-57
2023/04/16 07:41:39;;;;;;;26.50;22.00;;;;;;;;;;5072681;28;20524;-57
2023/04/16 07:44:06;;;;;;;24.03;20.93;;;;;;;;;;5072347;28;20570;-57
2023/04/16 07:46:33;;;;;;;25.23;22.57;;;;;;;;;;5072323;28;20807;-57
2023/04/16 07:49:00;;;;;;;25.00;21.43;;;;;;;;;;5072356;28;20448;-56
2023/04/16 07:51:27;;;;;;;26.33;19.63;;;;;;;;;;5072237;28;21003;-57
2023/04/16 07:53:54;;;;;;;25.60;20.23;;;;;;;;;;5072096;28;20539;-57
2023/04/16 07:56:23;;;;;;;25.30;18.23;;;;;;;;;;5072505;28;20459;-57
2023/04/16 07:58:50;;;;;;;23.37;19.93;;;;;;;;;;5072124;28;20546;-55
2023/04/16 08:01:17;;;;;;;25.60;20.27;;;;;;;;;;5072289;28;20526;-57
2023/04/16 08:03:44;;;;;;;20.73;18.20;;;;;;;;;;5072200;28;20546;-56
2023/04/16 08:06:11;;;;;;;21.43;18.23;;;;;;;;;;5072160;28;20958;-57
2023/04/16 08:08:38;;;;;;;21.50;19.20;;;;;;;;;;5072045;28;20905;-56
2023/04/16 08:11:05;;;;;;;19.87;17.40;;;;;;;;;;5072494;28;20440;-55
2023/04/16 08:13:33;;;;;;;20.77;17.37;;;;;;;;;;5072129;28;20556;-57
2023/04/16 08:16:00;;;;;;;22.50;19.00;;;;;;;;;;5072125;28;20544;-56
2023/04/16 08:18:27;;;;;;;21.97;17.67;;;;;;;;;;5072475;28;20844;-57
2023/04/16 08:20:55;;;;;;;20.93;17.00;;;;;;;;;;5071859;28;20489;-57
2023/04/16 08:23:22;;;;;;;20.63;16.30;;;;;;;;;;5072314;28;20538;-56
2023/04/16 08:25:49;;;;;;;19.23;17.10;;;;;;;;;;5072176;28;20540;-57
2023/04/16 08:28:16;;;;;;;17.20;15.40;;;;;;;;;;5071999;28;20535;-56
2023/04/16 08:30:44;;;;;;;18.60;16.13;;;;;;;;;;5072073;28;20448;-56
2023/04/16 08:33:12;;;;;;;20.87;16.73;;;;;;;;;;5074853;28;20761;-57
2023/04/16 08:35:39;;;;;;;20.20;16.10;;;;;;;;;;5075320;28;21000;-54
2023/04/16 08:38:07;;;;;;;18.53;15.57;;;;;;;;;;5075573;28;20448;-59
2023/04/16 08:40:35;;;;;;;17.83;16.03;;;;;;;;;;5075470;28;20819;-57
2023/04/16 08:43:03;;;;;;;17.93;15.50;;;;;;;;;;5075187;28;20570;-57
2023/04/16 08:45:30;;;;;;;18.73;15.13;;;;;;;;;;5075333;28;20487;-57
2023/04/16 08:47:58;;;;;;;16.43;14.77;;;;;;;;;;5075071;28;20943;-56
2023/04/16 08:50:27;;;;;;;15.20;13.60;;;;;;;;;;5075245;28;20538;-56
2023/04/16 08:52:58;;;;;;;17.10;15.30;;;;;;;;;;5075127;28;20484;-57
2023/04/16 08:55:27;;;;;;;14.73;13.33;;;;;;;;;;5075273;28;20448;-58
2023/04/16 08:57:55;;;;;;;15.30;13.67;;;;;;;;;;5075009;28;20546;-58
2023/04/16 09:00:22;;;;;;;16.90;13.80;;;;;;;;;;5074910;28;20541;-56
2023/04/16 09:02:50;;;;;;;17.73;15.93;;;;;;;;;;5074783;28;20452;-55
2023/04/16 09:05:20;;;;;;;21.83;14.93;;;;;;;;;;5075085;28;20785;-58
2023/04/16 09:07:47;;;;;;;15.77;14.13;;;;;;;;;;5074763;28;20943;-56
2023/04/16 09:10:15;;;;;;;15.40;13.70;;;;;;;;;;5074706;28;20458;-58
2023/04/16 09:12:42;;;;;;;16.40;14.60;;;;;;;;;;5074626;28;20480;-55
2023/04/16 09:15:10;;;;;;;18.57;14.93;;;;;;;;;;5074534;28;20998;-55
2023/04/16 09:17:37;;;;;;;17.20;15.37;;;;;;;;;;5074792;28;20852;-56
2023/04/16 09:20:07;;;;;;;20.27;15.17;;;;;;;;;;5074602;28;20547;-57
2023/04/16 09:22:35;;;;;;;15.50;13.93;;;;;;;;;;5074611;28;20869;-57
2023/04/16 09:25:02;;;;;;;16.90;14.40;;;;;;;;;;5074577;28;20450;-56
2023/04/16 09:27:30;;;;;;;17.07;15.47;;;;;;;;;;5074462;28;20991;-57
2023/04/16 09:29:57;;;;;;;16.10;14.40;;;;;;;;;;5074598;28;20535;-58
2023/04/16 09:32:25;;;;;;;14.40;13.10;;;;;;;;;;5074189;28;20497;-57
2023/04/16 09:34:57;;;;;;;15.57;14.00;;;;;;;;;;5074526;28;20493;-56
2023/04/16 09:37:24;;;;;;;16.10;14.40;;;;;;;;;;5074325;28;20477;-57
2023/04/16 09:39:56;;;;;;;16.67;15.03;;;;;;;;;;5074245;28;20459;-57
2023/04/16 09:42:24;;;;;;;16.23;14.63;;;;;;;;;;5074109;28;20568;-58
2023/04/16 09:44:51;;;;;;;16.20;13.67;;;;;;;;;;5073308;28;20565;-57
2023/04/16 09:47:18;;;;;;;15.30;13.80;;;;;;;;;;5074246;28;20458;-56
2023/04/16 09:49:45;;;;;;;14.47;12.97;;;;;;;;;;5074065;28;20452;-57
2023/04/16 09:52:14;;;;;;;15.30;13.80;;;;;;;;;;5074068;28;20530;-57
2023/04/16 09:54:46;;;;;;;16.10;14.40;;;;;;;;;;5074197;28;20534;-57
2023/04/16 09:57:15;;;;;;;16.53;15.03;;;;;;;;;;5074206;28;20539;-57
2023/04/16 09:59:42;;;;;;;15.60;14.07;;;;;;;;;;5074020;28;20471;-58
2023/04/16 10:02:09;;;;;;;14.97;13.23;;;;;;;;;;5073883;28;20531;-58
2023/04/16 10:04:46;;;;;;;14.53;13.03;;;;;;;;;;5073942;28;20450;-57
2023/04/16 10:07:13;;;;;;;14.17;12.87;;;;;;;;;;5073519;28;20527;-57
2023/04/16 10:09:41;;;;;;;11.33;10.33;;;;;;;;;;5073863;28;20985;-58
2023/04/16 10:12:08;;;;;;;11.10;10.10;;;;;;;;;;5073702;28;20447;-57
2023/04/16 10:14:36;;;;;;;10.70;9.70;;;;;;;;;;5073575;28;20547;-57
2023/04/16 10:17:04;;;;;;;10.60;9.67;;;;;;;;;;5073522;28;20453;-57
2023/04/16 10:19:32;;;;;;;12.23;10.70;;;;;;;;;;5073424;28;20447;-57
2023/04/16 10:21:59;;;;;;;11.60;10.37;;;;;;;;;;5073176;28;20493;-57
2023/04/16 10:24:26;;;;;;;12.90;11.60;;;;;;;;;;5073500;28;20451;-57
2023/04/16 10:26:53;;;;;;;12.17;10.97;;;;;;;;;;5073445;28;20894;-57
2023/04/16 10:29:21;;;;;;;14.30;12.13;;;;;;;;;;5073218;28;20535;-56
2023/04/16 10:31:49;;;;;;;12.30;11.10;;;;;;;;;;5073357;28;20444;-56
2023/04/16 10:34:17;;;;;;;10.70;9.70;;;;;;;;;;5073048;28;21008;-57
2023/04/16 10:36:44;;;;;;;12.90;10.33;;;;;;;;;;5073231;28;20541;-58
2023/04/16 10:39:12;;;;;;;11.60;10.20;;;;;;;;;;5073122;28;20444;-58
2023/04/16 10:41:40;;;;;;;10.13;9.17;;;;;;;;;;5073123;28;20447;-57
2023/04/16 10:44:08;;;;;;;11.70;10.70;;;;;;;;;;5073001;28;20482;-57
2023/04/16 10:46:37;;;;;;;8.17;7.47;;;;;;;;;;5072958;28;20511;-57
2023/04/16 10:49:13;;;;;;;8.30;7.60;;;;;;;;;;5072837;28;21065;-57
2023/04/16 10:51:40;;;;;;;8.03;7.30;;;;;;;;;;5073048;28;20505;-57
2023/04/16 10:54:19;;;;;;;8.07;7.40;;;;;;;;;;5072858;28;20625;-56
2023/04/16 10:56:47;;;;;;;8.10;7.40;;;;;;;;;;5073048;28;20550;-57
2023/04/16 10:59:14;;;;;;;8.73;8.00;;;;;;;;;;5072822;28;20456;-57
2023/04/16 11:01:42;;;;;;;7.67;7.07;;;;;;;;;;5072948;28;20544;-57
2023/04/16 11:04:29;;;;;;;6.17;5.70;;;;;;;;;;5072613;28;21011;-58
2023/04/16 11:07:02;;;;;;;6.50;6.00;;;;;;;;;;5072828;28;20456;-57
2023/04/16 11:09:46;;;;;;;6.57;5.90;;;;;;;;;;5072600;28;20535;-58
2023/04/16 11:12:14;;;;;;;6.50;6.00;;;;;;;;;;5072782;28;20451;-58
2023/04/16 11:14:41;;;;;;;5.57;5.27;;;;;;;;;;5072643;28;20479;-58
2023/04/16 11:17:08;;;;;;;8.27;7.50;;;;;;;;;;5072738;28;20539;-57
2023/04/16 11:19:37;;;;;;;7.30;6.70;;;;;;;;;;5072618;28;20455;-57
2023/04/16 11:22:04;;;;;;;6.93;6.43;;;;;;;;;;5072418;28;20451;-59
2023/04/16 11:24:31;;;;;;;7.43;6.80;;;;;;;;;;5072436;28;20579;-57
2023/04/16 11:26:58;;;;;;;7.40;6.80;;;;;;;;;;5072792;28;20455;-58
2023/04/16 11:29:25;;;;;;;6.70;6.20;;;;;;;;;;5072917;28;20458;-58
2023/04/16 11:31:53;;;;;;;7.87;7.27;;;;;;;;;;5073204;28;20444;-58
2023/04/16 11:34:20;;;;;;;6.90;6.30;;;;;;;;;;5072757;28;20489;-58
2023/04/16 11:36:49;;;;;;;8.93;8.23;;;;;;;;;;5072705;28;20483;-58
2023/04/16 11:39:16;;;;;;;8.77;7.50;;;;;;;;;;5072899;28;20505;-59
2023/04/16 11:41:43;;;;;;;9.10;8.40;;;;;;;;;;5072827;28;20543;-58
2023/04/16 11:44:20;;;;;;;10.37;9.33;;;;;;;;;;5072619;28;20472;-57
2023/04/16 11:46:47;;;;;;;10.27;9.07;;;;;;;;;;5072892;28;20448;-58
2023/04/16 11:49:16;;;;;;;8.87;8.17;;;;;;;;;;5072504;28;20452;-58
2023/04/16 11:51:44;;;;;;;8.90;8.17;;;;;;;;;;5072843;28;20852;-58
2023/04/16 11:54:18;;;;;;;10.80;9.80;;;;;;;;;;5072752;28;20522;-58
2023/04/16 11:56:46;;;;;;;12.03;9.50;;;;;;;;;;5072680;28;20451;-58
2023/04/16 11:59:14;;;;;;;9.33;8.53;;;;;;;;;;5072999;28;20448;-58
2023/04/16 12:01:41;;;;;;;9.60;8.90;;;;;;;;;;5072458;28;20943;-58
2023/04/16 12:04:09;;;;;;;9.90;9.10;;;;;;;;;;5072736;28;20550;-58
2023/04/16 12:06:36;;;;;;;9.63;8.90;;;;;;;;;;5073363;28;20452;-58
2023/04/16 12:09:17;;;;;;;8.93;8.23;;;;;;;;;;5076332;28;20452;-58
2023/04/16 12:11:46;;;;;;;9.00;8.30;;;;;;;;;;5076238;28;20879;-58
2023/04/16 12:14:13;;;;;;;10.53;9.53;;;;;;;;;;5076116;28;20479;-59
2023/04/16 12:16:40;;;;;;;9.17;8.37;;;;;;;;;;5076493;28;20528;-58
2023/04/16 12:19:11;;;;;;;9.50;8.70;;;;;;;;;;5076505;28;20487;-57
2023/04/16 12:21:38;;;;;;;10.03;9.10;;;;;;;;;;5076559;28;20452;-58
2023/04/16 12:24:06;;;;;;;9.83;8.83;;;;;;;;;;5076170;28;20486;-56
2023/04/16 12:26:37;;;;;;;9.10;8.40;;;;;;;;;;5075965;28;20788;-58
2023/04/16 12:29:16;;;;;;;8.53;7.83;;;;;;;;;;5075824;28;20822;-57
2023/04/16 12:31:43;;;;;;;8.70;8.00;;;;;;;;;;5076148;28;20444;-57
2023/04/16 12:34:10;;;;;;;9.87;8.97;;;;;;;;;;5075820;28;20483;-57
2023/04/16 12:36:37;;;;;;;8.43;7.70;;;;;;;;;;5075747;28;20452;-57
2023/04/16 12:39:04;;;;;;;9.50;8.73;;;;;;;;;;5075820;28;20448;-58
2023/04/16 12:41:31;;;;;;;8.17;7.57;;;;;;;;;;5075616;28;20547;-57
2023/04/16 12:44:03;;;;;;;8.97;8.27;;;;;;;;;;5075672;28;20472;-58
2023/04/16 12:46:32;;;;;;;8.80;8.00;;;;;;;;;;5075783;28;20484;-58
2023/04/16 12:48:59;;;;;;;9.10;8.40;;;;;;;;;;5076028;28;20449;-57
2023/04/16 12:51:26;;;;;;;8.67;8.10;;;;;;;;;;5075682;28;20452;-57
2023/04/16 12:53:54;;;;;;;8.00;7.40;;;;;;;;;;5075486;28;20478;-57
2023/04/16 12:56:21;;;;;;;8.60;7.90;;;;;;;;;;5075698;28;20448;-57
2023/04/16 12:58:50;;;;;;;8.27;7.60;;;;;;;;;;5075557;28;20454;-56
2023/04/16 13:01:17;;;;;;;8.67;7.97;;;;;;;;;;5075451;28;20452;-57
2023/04/16 13:03:45;;;;;;;9.60;8.90;;;;;;;;;;5075656;28;20452;-57
2023/04/16 13:06:12;;;;;;;10.80;9.90;;;;;;;;;;5075248;28;20543;-58
2023/04/16 13:08:40;;;;;;;11.07;10.23;;;;;;;;;;5075124;28;20509;-53
2023/04/16 13:11:07;;;;;;;12.90;11.70;;;;;;;;;;5075268;28;20505;-57
2023/04/16 13:13:33;;;;;;;13.93;12.60;;;;;;;;;;5075321;28;20506;-56
2023/04/16 13:16:02;;;;;;;15.23;13.90;;;;;;;;;;5075007;28;20811;-56
2023/04/16 13:18:30;;;;;;;16.83;15.17;;;;;;;;;;5074899;28;20476;-57
2023/04/16 13:20:59;;;;;;;15.90;14.20;;;;;;;;;;5074968;28;20458;-57
2023/04/16 13:23:26;;;;;;;16.70;15.00;;;;;;;;;;5074846;28;20963;-58
2023/04/16 13:25:53;;;;;;;16.67;15.03;;;;;;;;;;5074952;28;20448;-58
2023/04/16 13:28:20;;;;;;;16.70;13.90;;;;;;;;;;5075081;28;20444;-57
2023/04/16 13:30:47;;;;;;;16.23;14.67;;;;;;;;;;5074967;28;20454;-57
2023/04/16 13:33:14;;;;;;;17.27;15.37;;;;;;;;;;5074966;28;20452;-57
2023/04/16 13:35:41;;;;;;;14.80;13.50;;;;;;;;;;5074655;28;20452;-57
2023/04/16 13:38:09;;;;;;;14.67;13.37;;;;;;;;;;5074932;28;20478;-57
2023/04/16 13:40:36;;;;;;;15.27;13.73;;;;;;;;;;5074558;28;20968;-57
2023/04/16 13:43:03;;;;;;;14.60;13.20;;;;;;;;;;5074538;28;20479;-57
2023/04/16 13:45:30;;;;;;;14.10;12.80;;;;;;;;;;5074898;28;20455;-57
2023/04/16 13:47:57;;;;;;;16.00;12.80;;;;;;;;;;5074425;28;20454;-59
2023/04/16 13:50:24;;;;;;;12.00;11.00;;;;;;;;;;5074659;28;20452;-58
2023/04/16 13:52:50;;;;;;;13.27;12.07;;;;;;;;;;5074581;28;20474;-57
2023/04/16 13:55:19;;;;;;;13.10;11.83;;;;;;;;;;5074211;28;21053;-57
2023/04/16 13:57:46;;;;;;;11.53;10.53;;;;;;;;;;5074621;28;20454;-58
2023/04/16 14:00:14;;;;;;;12.30;11.20;;;;;;;;;;5074285;28;20456;-56
2023/04/16 14:02:41;;;;;;;12.40;11.20;;;;;;;;;;5074126;28;20799;-58
2023/04/16 14:05:09;;;;;;;11.83;10.67;;;;;;;;;;5074292;28;20455;-55
2023/04/16 14:07:35;;;;;;;12.00;11.00;;;;;;;;;;5074160;28;20531;-57
2023/04/16 14:10:04;;;;;;;11.83;10.73;;;;;;;;;;5074093;28;20802;-57
2023/04/16 14:12:32;;;;;;;11.53;10.60;;;;;;;;;;5074078;28;20486;-57
2023/04/16 14:15:00;;;;;;;11.80;10.70;;;;;;;;;;5074444;28;20970;-57
2023/04/16 14:17:27;;;;;;;12.00;10.93;;;;;;;;;;5074162;28;20444;-56
2023/04/16 14:19:54;;;;;;;12.87;11.77;;;;;;;;;;5074012;28;20448;-59
2023/04/16 14:22:21;;;;;;;12.37;11.27;;;;;;;;;;5073941;28;20444;-58
2023/04/16 14:24:48;;;;;;;12.87;11.57;;;;;;;;;;5074118;28;20444;-58